Terminal Aerodrome Forecast
Issued by NWS

Home | Current Version | Previous Version | Text Only | Print | Product List | Glossary Off
Versions: 1 2 3 4 5 6 7 8 9 10 11 12 13 14 15 16 17 18 19 20 21 22 23 24 25 26 27 28 29 30 31 32

000
FTUS43 KMPX 021740
TAFAXN
TAF
KAXN 021740Z 0218/0318 10010KT P6SM BKN015
      TEMPO 0218/0221 SCT015 BKN040
     FM022100 10009KT P6SM SCT015 BKN040
     FM022300 11005KT P6SM SCT050
     FM030500 11004KT 5SM BR FEW007
     FM030700 11004KT 2SM BR OVC006
     FM031500 13006KT P6SM SCT007 BKN015=

USA.gov is the U.S. government's official web portal to all federal, state and local government web resources and services.